sensor_id;sensor_type;location;lat;lon;timestamp;P1;durP1;ratioP1;P2;durP2;ratioP2
46721;SDS011;32455;43.430;23.136;2023-03-01T00:02:08;413.55;;;21.35;;
46721;SDS011;32455;43.430;23.136;2023-03-01T00:04:53;403.42;;;22.63;;
46721;SDS011;32455;43.430;23.136;2023-03-01T00:07:38;351.27;;;18.60;;
46721;SDS011;32455;43.430;23.136;2023-03-01T00:10:24;379.65;;;22.73;;
46721;SDS011;32455;43.430;23.136;2023-03-01T00:13:10;295.45;;;19.30;;
46721;SDS011;32455;43.430;23.136;2023-03-01T00:15:55;528.45;;;26.10;;
46721;SDS011;32455;43.430;23.136;2023-03-01T00:18:40;544.03;;;25.77;;
46721;SDS011;32455;43.430;23.136;2023-03-01T00:21:25;527.13;;;26.00;;
46721;SDS011;32455;43.430;23.136;2023-03-01T00:24:11;489.55;;;25.40;;
46721;SDS011;32455;43.430;23.136;2023-03-01T00:26:56;293.20;;;18.23;;
46721;SDS011;32455;43.430;23.136;2023-03-01T00:29:42;374.00;;;21.67;;
46721;SDS011;32455;43.430;23.136;2023-03-01T00:32:27;492.55;;;24.92;;
46721;SDS011;32455;43.430;23.136;2023-03-01T00:35:13;428.85;;;24.55;;
46721;SDS011;32455;43.430;23.136;2023-03-01T00:37:58;341.92;;;21.00;;
46721;SDS011;32455;43.430;23.136;2023-03-01T00:40:45;263.92;;;17.98;;
46721;SDS011;32455;43.430;23.136;2023-03-01T00:43:30;268.90;;;17.90;;
46721;SDS011;32455;43.430;23.136;2023-03-01T00:46:21;440.67;;;23.27;;
46721;SDS011;32455;43.430;23.136;2023-03-01T00:49:09;447.00;;;23.63;;
46721;SDS011;32455;43.430;23.136;2023-03-01T00:51:54;375.08;;;30.75;;
46721;SDS011;32455;43.430;23.136;2023-03-01T00:54:39;374.98;;;25.80;;
46721;SDS011;32455;43.430;23.136;2023-03-01T00:57:25;490.25;;;26.23;;
46721;SDS011;32455;43.430;23.136;2023-03-01T01:00:10;525.50;;;27.30;;
46721;SDS011;32455;43.430;23.136;2023-03-01T01:02:56;553.03;;;29.38;;
46721;SDS011;32455;43.430;23.136;2023-03-01T01:05:41;439.17;;;26.65;;
46721;SDS011;32455;43.430;23.136;2023-03-01T01:08:27;379.52;;;20.02;;
46721;SDS011;32455;43.430;23.136;2023-03-01T01:11:12;533.00;;;30.48;;
46721;SDS011;32455;43.430;23.136;2023-03-01T01:13:58;499.33;;;26.80;;
46721;SDS011;32455;43.430;23.136;2023-03-01T01:16:43;442.70;;;24.60;;
46721;SDS011;32455;43.430;23.136;2023-03-01T01:19:29;417.60;;;25.42;;
46721;SDS011;32455;43.430;23.136;2023-03-01T01:22:15;651.95;;;32.63;;
46721;SDS011;32455;43.430;23.136;2023-03-01T01:25:00;469.38;;;28.98;;
46721;SDS011;32455;43.430;23.136;2023-03-01T01:27:45;404.00;;;25.38;;
46721;SDS011;32455;43.430;23.136;2023-03-01T01:30:31;441.77;;;26.27;;
46721;SDS011;32455;43.430;23.136;2023-03-01T01:33:16;322.67;;;23.05;;
46721;SDS011;32455;43.430;23.136;2023-03-01T01:36:02;380.30;;;23.77;;
46721;SDS011;32455;43.430;23.136;2023-03-01T01:38:47;446.52;;;25.92;;
46721;SDS011;32455;43.430;23.136;2023-03-01T01:41:33;357.85;;;22.35;;
46721;SDS011;32455;43.430;23.136;2023-03-01T01:44:20;277.67;;;21.50;;
46721;SDS011;32455;43.430;23.136;2023-03-01T01:47:13;418.88;;;26.42;;
46721;SDS011;32455;43.430;23.136;2023-03-01T01:50:02;485.38;;;26.45;;
46721;SDS011;32455;43.430;23.136;2023-03-01T01:52:48;489.45;;;28.42;;
46721;SDS011;32455;43.430;23.136;2023-03-01T01:55:37;448.48;;;23.80;;
46721;SDS011;32455;43.430;23.136;2023-03-01T01:58:27;443.25;;;25.67;;
46721;SDS011;32455;43.430;23.136;2023-03-01T02:01:15;591.58;;;31.10;;
46721;SDS011;32455;43.430;23.136;2023-03-01T02:04:00;399.98;;;23.95;;
46721;SDS011;32455;43.430;23.136;2023-03-01T02:06:49;447.75;;;27.15;;
46721;SDS011;32455;43.430;23.136;2023-03-01T02:09:44;561.22;;;32.08;;
46721;SDS011;32455;43.430;23.136;2023-03-01T02:12:32;449.83;;;28.17;;
46721;SDS011;32455;43.430;23.136;2023-03-01T02:15:17;403.02;;;27.75;;
46721;SDS011;32455;43.430;23.136;2023-03-01T02:18:02;296.08;;;23.23;;
46721;SDS011;32455;43.430;23.136;2023-03-01T02:24:05;381.40;;;28.02;;
46721;SDS011;32455;43.430;23.136;2023-03-01T02:27:06;500.23;;;29.30;;
46721;SDS011;32455;43.430;23.136;2023-03-01T02:29:52;535.67;;;32.67;;
46721;SDS011;32455;43.430;23.136;2023-03-01T02:32:39;445.80;;;28.90;;
46721;SDS011;32455;43.430;23.136;2023-03-01T02:35:26;504.67;;;31.95;;
46721;SDS011;32455;43.430;23.136;2023-03-01T02:38:12;516.78;;;32.83;;
46721;SDS011;32455;43.430;23.136;2023-03-01T02:40:57;441.55;;;29.05;;
46721;SDS011;32455;43.430;23.136;2023-03-01T02:43:42;256.83;;;23.48;;
46721;SDS011;32455;43.430;23.136;2023-03-01T02:46:28;198.27;;;22.95;;
46721;SDS011;32455;43.430;23.136;2023-03-01T02:49:27;314.02;;;26.33;;
46721;SDS011;32455;43.430;23.136;2023-03-01T02:52:30;182.50;;;22.65;;
46721;SDS011;32455;43.430;23.136;2023-03-01T02:55:26;147.38;;;21.30;;
46721;SDS011;32455;43.430;23.136;2023-03-01T02:58:12;296.42;;;24.40;;
46721;SDS011;32455;43.430;23.136;2023-03-01T03:00:57;115.07;;;21.90;;
46721;SDS011;32455;43.430;23.136;2023-03-01T03:03:45;244.70;;;26.50;;
46721;SDS011;32455;43.430;23.136;2023-03-01T03:06:31;421.13;;;29.52;;
46721;SDS011;32455;43.430;23.136;2023-03-01T03:09:17;318.58;;;25.42;;
46721;SDS011;32455;43.430;23.136;2023-03-01T03:12:03;260.90;;;24.95;;
46721;SDS011;32455;43.430;23.136;2023-03-01T03:14:49;312.25;;;25.38;;
46721;SDS011;32455;43.430;23.136;2023-03-01T03:17:37;440.55;;;27.85;;
46721;SDS011;32455;43.430;23.136;2023-03-01T03:20:25;176.10;;;21.73;;
46721;SDS011;32455;43.430;23.136;2023-03-01T03:23:11;190.52;;;26.50;;
46721;SDS011;32455;43.430;23.136;2023-03-01T03:25:57;134.05;;;20.63;;
46721;SDS011;32455;43.430;23.136;2023-03-01T03:28:42;109.72;;;20.38;;
46721;SDS011;32455;43.430;23.136;2023-03-01T03:31:27;126.07;;;20.17;;
46721;SDS011;32455;43.430;23.136;2023-03-01T03:34:13;91.55;;;19.40;;
46721;SDS011;32455;43.430;23.136;2023-03-01T03:37:02;80.18;;;18.50;;
46721;SDS011;32455;43.430;23.136;2023-03-01T03:39:47;108.35;;;19.17;;
46721;SDS011;32455;43.430;23.136;2023-03-01T03:42:33;87.75;;;18.10;;
46721;SDS011;32455;43.430;23.136;2023-03-01T03:45:18;46.08;;;16.90;;
46721;SDS011;32455;43.430;23.136;2023-03-01T03:48:04;150.40;;;19.63;;
46721;SDS011;32455;43.430;23.136;2023-03-01T03:50:55;233.65;;;22.98;;
46721;SDS011;32455;43.430;23.136;2023-03-01T03:53:41;125.68;;;20.00;;
46721;SDS011;32455;43.430;23.136;2023-03-01T03:56:26;78.20;;;18.20;;
46721;SDS011;32455;43.430;23.136;2023-03-01T03:59:11;74.32;;;17.98;;
46721;SDS011;32455;43.430;23.136;2023-03-01T04:01:56;62.45;;;16.58;;
46721;SDS011;32455;43.430;23.136;2023-03-01T04:04:42;75.80;;;17.08;;
46721;SDS011;32455;43.430;23.136;2023-03-01T04:07:27;72.85;;;18.05;;
46721;SDS011;32455;43.430;23.136;2023-03-01T04:10:16;87.10;;;18.55;;
46721;SDS011;32455;43.430;23.136;2023-03-01T04:13:02;59.00;;;17.58;;
46721;SDS011;32455;43.430;23.136;2023-03-01T04:15:52;70.47;;;16.83;;
46721;SDS011;32455;43.430;23.136;2023-03-01T04:18:38;52.42;;;16.15;;
46721;SDS011;32455;43.430;23.136;2023-03-01T04:21:23;88.80;;;17.73;;
46721;SDS011;32455;43.430;23.136;2023-03-01T04:24:09;106.88;;;17.50;;
46721;SDS011;32455;43.430;23.136;2023-03-01T04:26:54;141.63;;;18.85;;
46721;SDS011;32455;43.430;23.136;2023-03-01T04:29:40;133.43;;;18.45;;
46721;SDS011;32455;43.430;23.136;2023-03-01T04:32:25;173.63;;;18.83;;
46721;SDS011;32455;43.430;23.136;2023-03-01T04:35:10;173.85;;;17.92;;
46721;SDS011;32455;43.430;23.136;2023-03-01T04:37:55;79.35;;;15.93;;
46721;SDS011;32455;43.430;23.136;2023-03-01T04:40:41;92.95;;;16.80;;
46721;SDS011;32455;43.430;23.136;2023-03-01T04:43:28;68.45;;;15.77;;
46721;SDS011;32455;43.430;23.136;2023-03-01T04:46:14;81.68;;;17.70;;
46721;SDS011;32455;43.430;23.136;2023-03-01T04:49:02;71.80;;;15.30;;
46721;SDS011;32455;43.430;23.136;2023-03-01T04:51:48;59.35;;;15.40;;
46721;SDS011;32455;43.430;23.136;2023-03-01T04:54:32;133.20;;;17.13;;
46721;SDS011;32455;43.430;23.136;2023-03-01T04:57:18;134.88;;;16.83;;
46721;SDS011;32455;43.430;23.136;2023-03-01T05:00:04;43.05;;;13.57;;
46721;SDS011;32455;43.430;23.136;2023-03-01T05:03:10;55.72;;;14.18;;
46721;SDS011;32455;43.430;23.136;2023-03-01T05:05:58;38.08;;;13.43;;
46721;SDS011;32455;43.430;23.136;2023-03-01T05:08:44;35.47;;;14.05;;
46721;SDS011;32455;43.430;23.136;2023-03-01T05:11:29;37.67;;;13.25;;
46721;SDS011;32455;43.430;23.136;2023-03-01T05:14:18;28.48;;;11.30;;
46721;SDS011;32455;43.430;23.136;2023-03-01T05:17:03;25.45;;;11.50;;
46721;SDS011;32455;43.430;23.136;2023-03-01T05:19:49;26.50;;;11.52;;
46721;SDS011;32455;43.430;23.136;2023-03-01T05:22:35;37.72;;;13.25;;
46721;SDS011;32455;43.430;23.136;2023-03-01T05:25:21;105.88;;;17.00;;
46721;SDS011;32455;43.430;23.136;2023-03-01T05:28:09;33.35;;;14.32;;
46721;SDS011;32455;43.430;23.136;2023-03-01T05:30:57;29.67;;;12.95;;
46721;SDS011;32455;43.430;23.136;2023-03-01T05:33:42;25.48;;;11.07;;
46721;SDS011;32455;43.430;23.136;2023-03-01T05:36:28;35.97;;;11.65;;
46721;SDS011;32455;43.430;23.136;2023-03-01T05:39:13;26.08;;;10.85;;
46721;SDS011;32455;43.430;23.136;2023-03-01T05:42:00;29.98;;;11.43;;
46721;SDS011;32455;43.430;23.136;2023-03-01T05:44:46;28.42;;;11.48;;
46721;SDS011;32455;43.430;23.136;2023-03-01T05:47:32;32.35;;;12.05;;
46721;SDS011;32455;43.430;23.136;2023-03-01T05:50:18;89.13;;;13.38;;
46721;SDS011;32455;43.430;23.136;2023-03-01T05:53:08;323.67;;;18.83;;
46721;SDS011;32455;43.430;23.136;2023-03-01T05:55:54;225.80;;;16.95;;
46721;SDS011;32455;43.430;23.136;2023-03-01T05:58:39;130.80;;;13.85;;
46721;SDS011;32455;43.430;23.136;2023-03-01T06:01:25;110.22;;;14.27;;
46721;SDS011;32455;43.430;23.136;2023-03-01T06:04:10;28.45;;;12.35;;
46721;SDS011;32455;43.430;23.136;2023-03-01T06:06:55;108.15;;;14.23;;
46721;SDS011;32455;43.430;23.136;2023-03-01T06:09:40;86.38;;;13.18;;
46721;SDS011;32455;43.430;23.136;2023-03-01T06:12:26;64.25;;;12.07;;
46721;SDS011;32455;43.430;23.136;2023-03-01T06:15:12;26.00;;;11.48;;
46721;SDS011;32455;43.430;23.136;2023-03-01T06:17:58;27.02;;;11.32;;
46721;SDS011;32455;43.430;23.136;2023-03-01T06:20:44;25.52;;;11.05;;
46721;SDS011;32455;43.430;23.136;2023-03-01T06:23:29;22.35;;;10.30;;
46721;SDS011;32455;43.430;23.136;2023-03-01T06:26:15;19.40;;;9.65;;
46721;SDS011;32455;43.430;23.136;2023-03-01T06:29:01;16.95;;;9.18;;
46721;SDS011;32455;43.430;23.136;2023-03-01T06:31:46;19.35;;;9.77;;
46721;SDS011;32455;43.430;23.136;2023-03-01T06:34:31;19.70;;;9.95;;
46721;SDS011;32455;43.430;23.136;2023-03-01T06:37:17;17.80;;;8.52;;
46721;SDS011;32455;43.430;23.136;2023-03-01T06:40:03;18.73;;;9.85;;
46721;SDS011;32455;43.430;23.136;2023-03-01T06:42:52;20.02;;;9.75;;
46721;SDS011;32455;43.430;23.136;2023-03-01T06:45:37;21.63;;;10.27;;
46721;SDS011;32455;43.430;23.136;2023-03-01T06:48:22;15.30;;;9.68;;
46721;SDS011;32455;43.430;23.136;2023-03-01T06:51:07;16.25;;;9.23;;
46721;SDS011;32455;43.430;23.136;2023-03-01T06:53:52;16.05;;;9.15;;
46721;SDS011;32455;43.430;23.136;2023-03-01T06:56:38;17.08;;;9.70;;
46721;SDS011;32455;43.430;23.136;2023-03-01T06:59:24;18.10;;;9.88;;
46721;SDS011;32455;43.430;23.136;2023-03-01T07:02:12;15.32;;;9.05;;
46721;SDS011;32455;43.430;23.136;2023-03-01T07:04:58;16.02;;;9.43;;
46721;SDS011;32455;43.430;23.136;2023-03-01T07:07:44;13.10;;;8.73;;
46721;SDS011;32455;43.430;23.136;2023-03-01T07:10:29;16.38;;;9.52;;
46721;SDS011;32455;43.430;23.136;2023-03-01T07:13:15;12.55;;;8.23;;
46721;SDS011;32455;43.430;23.136;2023-03-01T07:16:00;13.68;;;8.80;;
46721;SDS011;32455;43.430;23.136;2023-03-01T07:18:46;14.65;;;8.93;;
46721;SDS011;32455;43.430;23.136;2023-03-01T07:21:31;15.27;;;8.90;;
46721;SDS011;32455;43.430;23.136;2023-03-01T07:24:16;12.68;;;8.05;;
46721;SDS011;32455;43.430;23.136;2023-03-01T07:27:02;16.80;;;10.70;;
46721;SDS011;32455;43.430;23.136;2023-03-01T07:29:47;12.70;;;9.38;;
46721;SDS011;32455;43.430;23.136;2023-03-01T07:32:32;13.30;;;9.13;;
46721;SDS011;32455;43.430;23.136;2023-03-01T07:35:18;12.10;;;8.15;;
46721;SDS011;32455;43.430;23.136;2023-03-01T07:38:03;15.80;;;8.70;;
46721;SDS011;32455;43.430;23.136;2023-03-01T07:40:49;11.73;;;8.25;;
46721;SDS011;32455;43.430;23.136;2023-03-01T07:43:35;10.48;;;7.85;;
46721;SDS011;32455;43.430;23.136;2023-03-01T07:46:20;10.10;;;7.68;;
46721;SDS011;32455;43.430;23.136;2023-03-01T07:49:05;11.18;;;7.70;;
46721;SDS011;32455;43.430;23.136;2023-03-01T07:51:51;10.82;;;7.65;;
46721;SDS011;32455;43.430;23.136;2023-03-01T07:54:36;9.75;;;7.30;;
46721;SDS011;32455;43.430;23.136;2023-03-01T07:57:22;11.00;;;7.63;;
46721;SDS011;32455;43.430;23.136;2023-03-01T08:00:09;9.75;;;6.97;;
46721;SDS011;32455;43.430;23.136;2023-03-01T08:02:59;11.77;;;8.27;;
46721;SDS011;32455;43.430;23.136;2023-03-01T08:05:48;11.45;;;7.63;;
46721;SDS011;32455;43.430;23.136;2023-03-01T08:08:34;10.43;;;7.75;;
46721;SDS011;32455;43.430;23.136;2023-03-01T08:11:20;11.55;;;7.55;;
46721;SDS011;32455;43.430;23.136;2023-03-01T08:14:06;9.18;;;7.00;;
46721;SDS011;32455;43.430;23.136;2023-03-01T08:16:51;7.45;;;5.82;;
46721;SDS011;32455;43.430;23.136;2023-03-01T08:19:37;6.55;;;5.60;;
46721;SDS011;32455;43.430;23.136;2023-03-01T08:22:23;7.45;;;5.65;;
46721;SDS011;32455;43.430;23.136;2023-03-01T08:25:08;6.28;;;5.15;;
46721;SDS011;32455;43.430;23.136;2023-03-01T08:27:54;5.95;;;5.10;;
46721;SDS011;32455;43.430;23.136;2023-03-01T08:30:39;6.63;;;5.57;;
46721;SDS011;32455;43.430;23.136;2023-03-01T08:33:24;6.32;;;5.35;;
46721;SDS011;32455;43.430;23.136;2023-03-01T08:36:09;8.25;;;5.50;;
46721;SDS011;32455;43.430;23.136;2023-03-01T08:38:54;7.90;;;5.35;;
46721;SDS011;32455;43.430;23.136;2023-03-01T08:41:39;6.75;;;5.38;;
46721;SDS011;32455;43.430;23.136;2023-03-01T08:44:25;7.30;;;5.77;;
46721;SDS011;32455;43.430;23.136;2023-03-01T08:47:10;7.80;;;5.65;;
46721;SDS011;32455;43.430;23.136;2023-03-01T08:49:55;6.82;;;5.72;;
46721;SDS011;32455;43.430;23.136;2023-03-01T08:52:41;6.13;;;5.30;;
46721;SDS011;32455;43.430;23.136;2023-03-01T08:55:26;6.25;;;5.32;;
46721;SDS011;32455;43.430;23.136;2023-03-01T08:58:12;6.28;;;5.05;;
46721;SDS011;32455;43.430;23.136;2023-03-01T09:00:57;6.88;;;5.25;;
46721;SDS011;32455;43.430;23.136;2023-03-01T09:03:42;7.35;;;5.60;;
46721;SDS011;32455;43.430;23.136;2023-03-01T09:06:31;7.35;;;5.53;;
46721;SDS011;32455;43.430;23.136;2023-03-01T09:09:20;8.95;;;6.55;;
46721;SDS011;32455;43.430;23.136;2023-03-01T09:12:05;12.85;;;10.25;;
46721;SDS011;32455;43.430;23.136;2023-03-01T09:14:51;11.32;;;8.35;;
46721;SDS011;32455;43.430;23.136;2023-03-01T09:17:36;12.05;;;8.45;;
46721;SDS011;32455;43.430;23.136;2023-03-01T09:20:22;11.85;;;8.38;;
46721;SDS011;32455;43.430;23.136;2023-03-01T09:23:07;12.10;;;8.60;;
46721;SDS011;32455;43.430;23.136;2023-03-01T09:25:53;12.32;;;9.02;;
46721;SDS011;32455;43.430;23.136;2023-03-01T09:28:39;13.10;;;9.43;;
46721;SDS011;32455;43.430;23.136;2023-03-01T09:31:25;16.23;;;10.60;;
46721;SDS011;32455;43.430;23.136;2023-03-01T09:34:11;16.88;;;11.02;;
46721;SDS011;32455;43.430;23.136;2023-03-01T09:36:57;20.25;;;11.98;;
46721;SDS011;32455;43.430;23.136;2023-03-01T09:39:43;20.77;;;12.52;;
46721;SDS011;32455;43.430;23.136;2023-03-01T09:42:28;20.63;;;13.23;;
46721;SDS011;32455;43.430;23.136;2023-03-01T09:45:20;23.83;;;14.05;;
46721;SDS011;32455;43.430;23.136;2023-03-01T09:48:18;23.58;;;13.32;;
46721;SDS011;32455;43.430;23.136;2023-03-01T09:51:12;21.58;;;13.35;;
46721;SDS011;32455;43.430;23.136;2023-03-01T09:54:04;24.83;;;14.35;;
46721;SDS011;32455;43.430;23.136;2023-03-01T10:02:41;23.75;;;13.68;;
46721;SDS011;32455;43.430;23.136;2023-03-01T10:09:07;19.33;;;12.27;;
46721;SDS011;32455;43.430;23.136;2023-03-01T10:12:02;21.23;;;12.18;;
46721;SDS011;32455;43.430;23.136;2023-03-01T10:15:14;23.60;;;13.23;;
46721;SDS011;32455;43.430;23.136;2023-03-01T10:18:04;29.40;;;15.50;;
46721;SDS011;32455;43.430;23.136;2023-03-01T10:20:59;18.92;;;12.75;;
46721;SDS011;32455;43.430;23.136;2023-03-01T10:23:45;25.95;;;13.98;;
46721;SDS011;32455;43.430;23.136;2023-03-01T10:32:55;35.50;;;16.17;;
46721;SDS011;32455;43.430;23.136;2023-03-01T10:35:41;29.67;;;14.23;;
46721;SDS011;32455;43.430;23.136;2023-03-01T10:38:27;18.92;;;11.32;;
46721;SDS011;32455;43.430;23.136;2023-03-01T10:41:16;25.77;;;12.93;;
46721;SDS011;32455;43.430;23.136;2023-03-01T10:44:02;19.88;;;12.10;;
46721;SDS011;32455;43.430;23.136;2023-03-01T10:46:53;15.15;;;10.13;;
46721;SDS011;32455;43.430;23.136;2023-03-01T10:49:56;34.20;;;19.13;;
46721;SDS011;32455;43.430;23.136;2023-03-01T10:52:55;44.35;;;24.35;;
46721;SDS011;32455;43.430;23.136;2023-03-01T10:55:44;57.55;;;27.23;;
46721;SDS011;32455;43.430;23.136;2023-03-01T10:58:30;44.75;;;21.20;;
46721;SDS011;32455;43.430;23.136;2023-03-01T11:04:10;23.42;;;12.63;;
46721;SDS011;32455;43.430;23.136;2023-03-01T11:06:58;29.75;;;15.20;;
46721;SDS011;32455;43.430;23.136;2023-03-01T11:09:45;79.75;;;40.53;;
46721;SDS011;32455;43.430;23.136;2023-03-01T11:12:30;121.75;;;66.53;;
46721;SDS011;32455;43.430;23.136;2023-03-01T11:15:21;113.82;;;62.38;;
46721;SDS011;32455;43.430;23.136;2023-03-01T11:18:22;52.72;;;28.55;;
46721;SDS011;32455;43.430;23.136;2023-03-01T11:21:08;38.85;;;22.25;;
46721;SDS011;32455;43.430;23.136;2023-03-01T11:23:54;22.42;;;13.30;;
46721;SDS011;32455;43.430;23.136;2023-03-01T11:26:43;58.88;;;33.30;;
46721;SDS011;32455;43.430;23.136;2023-03-01T11:32:32;27.60;;;15.35;;
46721;SDS011;32455;43.430;23.136;2023-03-01T11:35:25;43.85;;;26.13;;
46721;SDS011;32455;43.430;23.136;2023-03-01T11:41:12;23.67;;;15.50;;
46721;SDS011;32455;43.430;23.136;2023-03-01T11:44:08;18.25;;;11.63;;
46721;SDS011;32455;43.430;23.136;2023-03-01T11:47:16;16.47;;;10.67;;
46721;SDS011;32455;43.430;23.136;2023-03-01T11:50:29;17.42;;;10.95;;
46721;SDS011;32455;43.430;23.136;2023-03-01T11:53:47;16.38;;;10.90;;
46721;SDS011;32455;43.430;23.136;2023-03-01T11:56:32;14.90;;;10.15;;
46721;SDS011;32455;43.430;23.136;2023-03-01T12:08:55;17.75;;;10.77;;
46721;SDS011;32455;43.430;23.136;2023-03-01T12:11:56;17.15;;;9.95;;
46721;SDS011;32455;43.430;23.136;2023-03-01T12:21:03;15.50;;;9.32;;
46721;SDS011;32455;43.430;23.136;2023-03-01T12:27:11;15.02;;;10.00;;
46721;SDS011;32455;43.430;23.136;2023-03-01T12:45:47;15.98;;;11.43;;
46721;SDS011;32455;43.430;23.136;2023-03-01T12:51:30;17.05;;;11.98;;
46721;SDS011;32455;43.430;23.136;2023-03-01T12:54:27;16.08;;;11.65;;
46721;SDS011;32455;43.430;23.136;2023-03-01T12:57:21;17.38;;;11.90;;
46721;SDS011;32455;43.430;23.136;2023-03-01T13:03:25;17.70;;;11.65;;
46721;SDS011;32455;43.430;23.136;2023-03-01T13:06:32;15.50;;;11.50;;
46721;SDS011;32455;43.430;23.136;2023-03-01T13:09:45;17.00;;;11.57;;
46721;SDS011;32455;43.430;23.136;2023-03-01T13:13:00;17.42;;;12.00;;
46721;SDS011;32455;43.430;23.136;2023-03-01T13:16:19;16.38;;;11.55;;
46721;SDS011;32455;43.430;23.136;2023-03-01T13:19:30;15.45;;;10.05;;
46721;SDS011;32455;43.430;23.136;2023-03-01T13:22:34;12.65;;;9.80;;
46721;SDS011;32455;43.430;23.136;2023-03-01T13:25:20;13.60;;;9.45;;
46721;SDS011;32455;43.430;23.136;2023-03-01T13:28:48;16.20;;;10.88;;
46721;SDS011;32455;43.430;23.136;2023-03-01T13:34:39;18.15;;;11.90;;
46721;SDS011;32455;43.430;23.136;2023-03-01T13:37:28;18.08;;;11.57;;
46721;SDS011;32455;43.430;23.136;2023-03-01T13:46:21;14.60;;;10.90;;
46721;SDS011;32455;43.430;23.136;2023-03-01T13:49:09;14.77;;;10.98;;
46721;SDS011;32455;43.430;23.136;2023-03-01T13:51:59;17.77;;;11.40;;
46721;SDS011;32455;43.430;23.136;2023-03-01T13:54:46;16.67;;;11.20;;
46721;SDS011;32455;43.430;23.136;2023-03-01T13:57:37;16.75;;;11.68;;
46721;SDS011;32455;43.430;23.136;2023-03-01T14:00:30;16.27;;;11.02;;
46721;SDS011;32455;43.430;23.136;2023-03-01T14:03:20;18.05;;;11.13;;
46721;SDS011;32455;43.430;23.136;2023-03-01T14:06:06;18.25;;;10.82;;
46721;SDS011;32455;43.430;23.136;2023-03-01T14:09:03;22.33;;;12.60;;
46721;SDS011;32455;43.430;23.136;2023-03-01T14:12:03;34.50;;;16.88;;
46721;SDS011;32455;43.430;23.136;2023-03-01T14:17:58;18.92;;;11.60;;
46721;SDS011;32455;43.430;23.136;2023-03-01T14:20:54;23.88;;;13.70;;
46721;SDS011;32455;43.430;23.136;2023-03-01T14:23:39;27.80;;;14.50;;
46721;SDS011;32455;43.430;23.136;2023-03-01T14:26:26;25.65;;;14.00;;
46721;SDS011;32455;43.430;23.136;2023-03-01T14:32:41;26.05;;;15.50;;
46721;SDS011;32455;43.430;23.136;2023-03-01T14:35:30;24.80;;;16.02;;
46721;SDS011;32455;43.430;23.136;2023-03-01T14:38:21;24.42;;;14.75;;
46721;SDS011;32455;43.430;23.136;2023-03-01T14:41:28;22.92;;;16.13;;
46721;SDS011;32455;43.430;23.136;2023-03-01T14:44:18;25.75;;;15.90;;
46721;SDS011;32455;43.430;23.136;2023-03-01T14:47:10;25.90;;;15.98;;
46721;SDS011;32455;43.430;23.136;2023-03-01T14:50:01;24.95;;;15.23;;
46721;SDS011;32455;43.430;23.136;2023-03-01T14:52:51;25.52;;;16.20;;
46721;SDS011;32455;43.430;23.136;2023-03-01T14:55:44;27.75;;;21.27;;
46721;SDS011;32455;43.430;23.136;2023-03-01T14:58:33;23.38;;;14.48;;
46721;SDS011;32455;43.430;23.136;2023-03-01T15:01:18;23.65;;;14.90;;
46721;SDS011;32455;43.430;23.136;2023-03-01T15:04:04;28.23;;;15.23;;
46721;SDS011;32455;43.430;23.136;2023-03-01T15:06:51;24.65;;;16.15;;
46721;SDS011;32455;43.430;23.136;2023-03-01T15:09:39;27.48;;;16.52;;
46721;SDS011;32455;43.430;23.136;2023-03-01T15:15:31;28.42;;;16.20;;
46721;SDS011;32455;43.430;23.136;2023-03-01T15:18:27;28.73;;;17.52;;
46721;SDS011;32455;43.430;23.136;2023-03-01T15:21:21;27.45;;;16.65;;
46721;SDS011;32455;43.430;23.136;2023-03-01T15:24:20;30.13;;;16.73;;
46721;SDS011;32455;43.430;23.136;2023-03-01T15:27:18;32.50;;;16.77;;
46721;SDS011;32455;43.430;23.136;2023-03-01T15:30:06;31.20;;;16.02;;
46721;SDS011;32455;43.430;23.136;2023-03-01T15:33:17;32.13;;;16.27;;
46721;SDS011;32455;43.430;23.136;2023-03-01T15:39:39;35.75;;;17.38;;
46721;SDS011;32455;43.430;23.136;2023-03-01T15:48:03;33.47;;;16.70;;
46721;SDS011;32455;43.430;23.136;2023-03-01T15:50:58;33.35;;;17.25;;
46721;SDS011;32455;43.430;23.136;2023-03-01T15:53:46;32.88;;;16.73;;
46721;SDS011;32455;43.430;23.136;2023-03-01T15:56:35;35.08;;;17.60;;
46721;SDS011;32455;43.430;23.136;2023-03-01T15:59:21;32.90;;;17.75;;
46721;SDS011;32455;43.430;23.136;2023-03-01T16:02:10;37.85;;;18.40;;
46721;SDS011;32455;43.430;23.136;2023-03-01T16:04:58;36.25;;;18.33;;
46721;SDS011;32455;43.430;23.136;2023-03-01T16:07:42;34.15;;;17.40;;
46721;SDS011;32455;43.430;23.136;2023-03-01T16:10:29;37.97;;;17.63;;
46721;SDS011;32455;43.430;23.136;2023-03-01T16:13:16;43.88;;;18.80;;
46721;SDS011;32455;43.430;23.136;2023-03-01T16:16:01;34.83;;;17.30;;
46721;SDS011;32455;43.430;23.136;2023-03-01T16:18:46;39.75;;;17.58;;
46721;SDS011;32455;43.430;23.136;2023-03-01T16:21:32;39.20;;;17.10;;
46721;SDS011;32455;43.430;23.136;2023-03-01T16:24:17;42.97;;;18.98;;
46721;SDS011;32455;43.430;23.136;2023-03-01T16:27:02;44.30;;;19.85;;
46721;SDS011;32455;43.430;23.136;2023-03-01T16:29:48;49.70;;;20.63;;
46721;SDS011;32455;43.430;23.136;2023-03-01T16:32:37;54.10;;;22.35;;
46721;SDS011;32455;43.430;23.136;2023-03-01T16:35:26;50.67;;;21.50;;
46721;SDS011;32455;43.430;23.136;2023-03-01T16:38:11;45.28;;;20.33;;
46721;SDS011;32455;43.430;23.136;2023-03-01T16:40:57;46.03;;;19.30;;
46721;SDS011;32455;43.430;23.136;2023-03-01T16:43:42;48.72;;;20.63;;
46721;SDS011;32455;43.430;23.136;2023-03-01T16:46:28;42.00;;;18.77;;
46721;SDS011;32455;43.430;23.136;2023-03-01T16:49:14;49.83;;;19.90;;
46721;SDS011;32455;43.430;23.136;2023-03-01T16:51:59;51.08;;;21.40;;
46721;SDS011;32455;43.430;23.136;2023-03-01T16:54:45;45.17;;;20.95;;
46721;SDS011;32455;43.430;23.136;2023-03-01T16:57:30;57.58;;;24.75;;
46721;SDS011;32455;43.430;23.136;2023-03-01T17:00:15;52.72;;;23.02;;
46721;SDS011;32455;43.430;23.136;2023-03-01T17:03:02;58.47;;;23.33;;
46721;SDS011;32455;43.430;23.136;2023-03-01T17:05:48;68.85;;;24.33;;
46721;SDS011;32455;43.430;23.136;2023-03-01T17:08:34;58.45;;;23.27;;
46721;SDS011;32455;43.430;23.136;2023-03-01T17:11:20;63.80;;;23.85;;
46721;SDS011;32455;43.430;23.136;2023-03-01T17:14:06;65.28;;;24.38;;
46721;SDS011;32455;43.430;23.136;2023-03-01T17:16:51;67.93;;;26.27;;
46721;SDS011;32455;43.430;23.136;2023-03-01T17:19:37;73.15;;;25.85;;
46721;SDS011;32455;43.430;23.136;2023-03-01T17:22:28;71.82;;;27.02;;
46721;SDS011;32455;43.430;23.136;2023-03-01T17:25:13;72.60;;;25.38;;
46721;SDS011;32455;43.430;23.136;2023-03-01T17:27:59;90.55;;;27.33;;
46721;SDS011;32455;43.430;23.136;2023-03-01T17:30:44;93.57;;;27.30;;
46721;SDS011;32455;43.430;23.136;2023-03-01T17:33:31;79.10;;;24.67;;
46721;SDS011;32455;43.430;23.136;2023-03-01T17:36:17;81.00;;;26.35;;
46721;SDS011;32455;43.430;23.136;2023-03-01T17:39:03;76.50;;;27.50;;
46721;SDS011;32455;43.430;23.136;2023-03-01T17:41:49;127.50;;;28.58;;
46721;SDS011;32455;43.430;23.136;2023-03-01T17:44:34;101.35;;;28.92;;
46721;SDS011;32455;43.430;23.136;2023-03-01T17:47:19;84.28;;;29.08;;